createdAt,value
2023-02-11T00:02:51.174Z,6.30
2023-02-11T00:07:52.856Z,6.30
2023-02-11T00:12:54.456Z,6.24
2023-02-11T00:17:56.143Z,6.26
2023-02-11T00:22:57.783Z,6.21
2023-02-11T00:27:59.513Z,6.17
2023-02-11T00:33:01.744Z,6.17
2023-02-11T00:38:03.442Z,6.17
2023-02-11T00:43:06.916Z,6.17
2023-02-11T00:48:08.596Z,6.11
2023-02-11T00:53:10.619Z,6.10
2023-02-11T00:58:13.476Z,6.08
2023-02-11T01:03:17.197Z,6.03
2023-02-11T01:08:19.549Z,6.01
2023-02-11T01:13:22.756Z,5.95
2023-02-11T01:18:25.488Z,5.93
2023-02-11T01:23:27.337Z,5.90
2023-02-11T01:28:30.349Z,5.89
2023-02-11T01:33:34.449Z,5.82
2023-02-11T01:38:36.762Z,5.89
2023-02-11T01:43:45.828Z,5.87
2023-02-11T01:48:55.172Z,5.88
2023-02-11T01:54:16.119Z,5.88
2023-02-11T01:59:27.081Z,5.88
2023-02-11T02:04:35.497Z,5.86
2023-02-11T02:09:44.573Z,5.91
2023-02-11T02:14:46.234Z,5.92
2023-02-11T02:20:11.102Z,5.90
2023-02-11T02:25:33.208Z,5.91
2023-02-11T02:31:12.520Z,5.86
2023-02-11T02:36:28.169Z,5.83
2023-02-11T02:41:35.782Z,5.78
2023-02-11T02:46:38.037Z,5.77
2023-02-11T02:51:59.121Z,5.77
2023-02-11T02:57:20.426Z,5.69
2023-02-11T03:02:30.267Z,5.68
2023-02-11T03:07:44.450Z,5.72
2023-02-11T03:12:48.751Z,5.71
2023-02-11T03:17:54.243Z,5.70
2023-02-11T03:23:09.075Z,5.69
2023-02-11T03:28:18.249Z,5.72
2023-02-11T03:33:35.647Z,5.74
2023-02-11T03:38:44.573Z,5.68
2023-02-11T03:43:54.357Z,5.69
2023-02-11T03:49:02.446Z,5.72
2023-02-11T03:54:09.091Z,5.76
2023-02-11T03:59:10.893Z,5.76
2023-02-11T04:04:12.704Z,5.79
2023-02-11T04:09:15.327Z,5.85
2023-02-11T04:14:17.080Z,5.89
2023-02-11T04:19:18.877Z,5.86
2023-02-11T04:24:20.514Z,5.86
2023-02-11T04:29:22.624Z,5.91
2023-02-11T04:34:25.611Z,5.95
2023-02-11T04:39:28.851Z,5.97
2023-02-11T04:44:30.617Z,5.96
2023-02-11T04:49:32.383Z,5.97
2023-02-11T04:54:34.128Z,5.95
2023-02-11T04:59:35.867Z,6.01
2023-02-11T05:04:37.536Z,6.07
2023-02-11T05:09:39.267Z,6.08
2023-02-11T05:14:41.067Z,6.09
2023-02-11T05:19:43.234Z,6.13
2023-02-11T05:24:44.885Z,6.14
2023-02-11T05:29:46.597Z,6.16
2023-02-11T05:34:48.212Z,6.13
2023-02-11T05:39:50.019Z,6.13
2023-02-11T05:44:51.715Z,6.20
2023-02-11T05:49:53.946Z,6.22
2023-02-11T05:54:55.590Z,6.22
2023-02-11T05:59:57.350Z,6.26
2023-02-11T06:04:59.030Z,6.29
2023-02-11T06:10:00.815Z,6.30
2023-02-11T06:15:02.573Z,6.28
2023-02-11T06:20:07.455Z,6.34
2023-02-11T06:25:09.235Z,6.32
2023-02-11T06:30:11.656Z,6.32
2023-02-11T06:35:14.561Z,6.35
2023-02-11T06:40:16.307Z,6.30
2023-02-11T06:45:18.121Z,6.29
2023-02-11T06:50:19.798Z,6.29
2023-02-11T06:55:21.510Z,6.30
2023-02-11T07:00:23.215Z,6.21
2023-02-11T07:05:24.881Z,6.25
2023-02-11T07:10:26.534Z,6.33
2023-02-11T07:15:28.152Z,6.29
2023-02-11T07:20:30.055Z,6.35
2023-02-11T07:25:31.710Z,6.35
2023-02-11T07:30:33.458Z,6.31
2023-02-11T07:35:35.161Z,6.30
2023-02-11T07:40:36.809Z,6.25
2023-02-11T07:45:39.402Z,6.26
2023-02-11T07:50:41.087Z,6.30
2023-02-11T07:55:43.639Z,6.28
2023-02-11T08:00:46.056Z,6.28
2023-02-11T08:05:47.728Z,6.25
2023-02-11T08:10:49.567Z,6.26
2023-02-11T08:15:51.890Z,6.32
2023-02-11T08:20:53.727Z,6.31
2023-02-11T08:25:55.352Z,6.36
2023-02-11T08:30:57.084Z,6.38
2023-02-11T08:35:58.761Z,6.37
2023-02-11T08:41:01.167Z,6.37
2023-02-11T08:46:03.527Z,6.45
2023-02-11T08:51:10.647Z,6.47
2023-02-11T08:56:13.843Z,6.57
2023-02-11T09:01:28.085Z,6.58
2023-02-11T09:06:29.883Z,6.59
2023-02-11T09:11:35.380Z,6.68
2023-02-11T09:16:37.148Z,6.74
2023-02-11T09:21:38.968Z,6.81
2023-02-11T09:26:42.144Z,6.81
2023-02-11T09:31:43.948Z,6.81
2023-02-11T09:36:46.071Z,6.79
2023-02-11T09:41:56.104Z,6.77
2023-02-11T09:47:02.748Z,6.81
2023-02-11T09:52:24.596Z,6.93
2023-02-11T09:57:34.141Z,7.15
2023-02-11T10:03:13.969Z,7.29
2023-02-11T10:08:39.742Z,7.29
2023-02-11T10:13:58.147Z,7.41
2023-02-11T10:19:30.817Z,7.47
2023-02-11T10:24:33.945Z,7.60
2023-02-11T10:29:52.443Z,7.68
2023-02-11T10:34:59.596Z,7.72
2023-02-11T10:40:01.281Z,8.09
2023-02-11T10:45:07.458Z,7.97
2023-02-11T10:50:28.235Z,8.05
2023-02-11T10:55:29.921Z,8.02
2023-02-11T11:00:40.997Z,7.92
2023-02-11T11:05:51.677Z,7.92
2023-02-11T11:11:06.574Z,8.06
2023-02-11T11:16:14.000Z,8.09
2023-02-11T11:21:30.435Z,8.08
2023-02-11T11:26:54.174Z,8.02
2023-02-11T11:31:58.115Z,7.96
2023-02-11T11:37:28.883Z,7.93
2023-02-11T11:42:36.429Z,7.97
2023-02-11T11:47:45.258Z,8.03
2023-02-11T11:53:09.878Z,8.06
2023-02-11T11:58:21.126Z,8.15
2023-02-11T12:04:20.532Z,8.25
2023-02-11T12:09:40.749Z,8.24
2023-02-11T12:14:45.309Z,8.26
2023-02-11T12:19:59.335Z,8.45
2023-02-11T12:25:19.952Z,8.41
2023-02-11T12:30:51.051Z,8.41
2023-02-11T12:36:06.674Z,8.48
2023-02-11T12:41:46.242Z,8.60
2023-02-11T12:47:17.658Z,8.57
2023-02-11T12:52:38.092Z,8.59
2023-02-11T12:57:41.669Z,8.70
2023-02-11T13:02:59.968Z,8.71
2023-02-11T13:08:17.084Z,8.65
2023-02-11T13:13:25.758Z,8.74
2023-02-11T13:18:58.315Z,8.74
2023-02-11T13:24:35.302Z,8.63
2023-02-11T13:29:56.325Z,8.69
2023-02-11T13:34:58.510Z,8.67
2023-02-11T13:40:01.167Z,8.58
2023-02-11T13:45:03.041Z,8.57
2023-02-11T13:50:07.630Z,8.64
2023-02-11T13:55:36.077Z,8.71
2023-02-11T14:00:37.646Z,8.76
2023-02-11T14:06:26.994Z,8.76
2023-02-11T14:11:43.604Z,8.75
2023-02-11T14:17:00.992Z,8.72
2023-02-11T14:22:04.691Z,8.65
2023-02-11T14:27:09.370Z,8.64
2023-02-11T14:32:58.257Z,8.52
2023-02-11T14:38:27.602Z,8.64
2023-02-11T14:43:38.695Z,8.50
2023-02-11T14:48:48.774Z,8.56
2023-02-11T14:53:51.312Z,8.56
2023-02-11T14:58:54.684Z,8.57
2023-02-11T15:03:57.075Z,8.52
2023-02-11T15:09:07.735Z,8.34
2023-02-11T15:14:19.174Z,8.34
2023-02-11T15:19:26.830Z,8.46
2023-02-11T15:24:31.338Z,8.40
2023-02-11T15:29:42.108Z,8.34
2023-02-11T15:34:46.048Z,8.32
2023-02-11T15:39:47.785Z,8.38
2023-02-11T15:45:08.709Z,8.30
2023-02-11T15:50:22.178Z,8.33
2023-02-11T15:55:26.707Z,8.35
2023-02-11T16:00:35.612Z,8.27
2023-02-11T16:05:38.338Z,8.26
2023-02-11T16:10:40.340Z,8.23
2023-02-11T16:15:42.218Z,8.11
2023-02-11T16:20:47.904Z,8.12
2023-02-11T16:25:55.058Z,8.11
2023-02-11T16:30:59.321Z,8.10
2023-02-11T16:36:10.483Z,8.14
2023-02-11T16:41:12.830Z,8.09
2023-02-11T16:46:16.144Z,8.07
2023-02-11T16:51:18.043Z,7.96
2023-02-11T16:56:19.879Z,7.90
2023-02-11T17:01:21.538Z,7.97
2023-02-11T17:06:23.505Z,7.99
2023-02-11T17:11:25.316Z,7.95
2023-02-11T17:16:29.920Z,7.94
2023-02-11T17:21:33.602Z,7.94
2023-02-11T17:26:36.921Z,7.78
2023-02-11T17:31:39.969Z,7.94
2023-02-11T17:36:41.721Z,7.96
2023-02-11T17:41:43.509Z,7.94
2023-02-11T17:46:45.181Z,7.81
2023-02-11T17:51:46.922Z,7.89
2023-02-11T17:56:50.769Z,7.83
2023-02-11T18:01:55.987Z,7.84
2023-02-11T18:07:01.064Z,7.89
2023-02-11T18:12:02.832Z,7.94
2023-02-11T18:17:04.504Z,7.85
2023-02-11T18:22:06.392Z,7.85
2023-02-11T18:27:08.040Z,7.79
2023-02-11T18:32:09.788Z,7.84
2023-02-11T18:37:13.381Z,7.81
2023-02-11T18:42:15.129Z,7.84
2023-02-11T18:47:16.756Z,7.81
2023-02-11T18:52:18.398Z,7.77
2023-02-11T18:57:20.101Z,7.84
2023-02-11T19:02:21.785Z,7.81
2023-02-11T19:07:25.137Z,7.87
2023-02-11T19:12:26.751Z,7.94
2023-02-11T19:17:28.783Z,7.89
2023-02-11T19:22:30.778Z,7.88
2023-02-11T19:27:32.755Z,7.91
2023-02-11T19:32:34.368Z,7.88
2023-02-11T19:37:36.187Z,7.90
2023-02-11T19:42:38.330Z,7.93
2023-02-11T19:47:39.944Z,7.97
2023-02-11T19:52:41.632Z,7.94
2023-02-11T19:57:43.336Z,7.96
2023-02-11T20:02:47.144Z,7.98
2023-02-11T20:07:48.844Z,7.97
2023-02-11T20:12:50.972Z,7.92
2023-02-11T20:17:52.684Z,7.94
2023-02-11T20:22:54.353Z,7.95
2023-02-11T20:27:56.083Z,7.92
2023-02-11T20:32:58.530Z,7.92
2023-02-11T20:38:00.705Z,7.86
2023-02-11T20:43:02.318Z,7.91
2023-02-11T20:48:04.110Z,7.89
2023-02-11T20:53:06.059Z,7.88
2023-02-11T20:58:08.629Z,7.89
2023-02-11T21:03:10.350Z,7.84
2023-02-11T21:08:11.969Z,7.81
2023-02-11T21:13:13.601Z,7.84
2023-02-11T21:18:15.268Z,7.82
2023-02-11T21:23:17.206Z,7.88
2023-02-11T21:28:19.108Z,7.88
2023-02-11T21:33:21.441Z,7.91
2023-02-11T21:38:23.348Z,7.88
2023-02-11T21:43:25.607Z,7.86
2023-02-11T21:48:27.292Z,7.86
2023-02-11T21:53:29.023Z,7.89
2023-02-11T21:58:30.789Z,7.91
2023-02-11T22:03:32.542Z,7.88
2023-02-11T22:08:34.127Z,7.89
2023-02-11T22:13:36.375Z,7.79
2023-02-11T22:18:39.060Z,7.81
2023-02-11T22:23:41.090Z,7.73
2023-02-11T22:28:43.276Z,7.71
2023-02-11T22:33:45.425Z,7.74
2023-02-11T22:38:48.912Z,7.69
2023-02-11T22:43:50.715Z,7.75
2023-02-11T22:48:52.701Z,7.70
2023-02-11T22:53:57.136Z,7.74
2023-02-11T22:59:04.234Z,7.75
2023-02-11T23:04:08.038Z,7.75
2023-02-11T23:09:14.428Z,7.77
2023-02-11T23:14:16.121Z,7.79
2023-02-11T23:19:17.719Z,7.77
2023-02-11T23:24:19.392Z,7.74
2023-02-11T23:29:21.174Z,7.78
2023-02-11T23:34:25.464Z,7.74
2023-02-11T23:39:27.150Z,7.63
2023-02-11T23:44:29.043Z,7.71
2023-02-11T23:49:31.026Z,7.77
2023-02-11T23:54:32.749Z,7.69
2023-02-11T23:59:34.378Z,7.66
